Time;durP1;ratioP1;P1;durP2;ratioP2;P2;SDS_P1;SDS_P2;PMS_P1;PMS_P2;Temp;Humidity;BMP_temperature;BMP_pressure;BME280_temperature;BME280_humidity;BME280_pressure;Samples;Min_cycle;Max_cycle;Signal;HPM_P1;HPM_P2
2022/01/14 00:02:22;;;;;;;13.50;6.93;;;2.10;79.70;;;;;;5010617;28;20040;-75
2022/01/14 00:05:25;;;;;;;12.75;6.75;;;2.00;80.90;;;;;;5011106;28;20041;-75
2022/01/14 00:08:29;;;;;;;14.38;6.45;;;1.90;81.30;;;;;;5010767;28;20049;-75
2022/01/14 00:11:40;;;;;;;13.60;6.22;;;1.90;81.00;;;;;;5010776;28;20053;-75
2022/01/14 00:14:58;;;;;;;9.90;6.22;;;1.90;84.90;;;;;;5010820;28;20614;-75
2022/01/14 00:18:02;;;;;;;10.50;6.22;;;1.80;84.50;;;;;;5011129;28;20037;-75
2022/01/14 00:21:06;;;;;;;17.15;8.10;;;1.70;84.50;;;;;;5011076;28;20057;-75
2022/01/14 00:34:15;;;;;;;;;;;1.30;85.40;;;;;;5011198;28;20489;-75
2022/01/14 00:37:20;;;;;;;12.25;5.82;;;1.30;87.10;;;;;;5010855;28;19916;-75
2022/01/14 00:40:24;;;;;;;7.53;4.18;;;1.40;87.20;;;;;;5010377;28;20504;-75
2022/01/14 00:43:29;;;;;;;8.45;3.78;;;1.40;86.30;;;;;;5010408;28;20034;-75
2022/01/14 00:46:33;;;;;;;8.23;4.07;;;1.40;86.70;;;;;;5010742;28;20479;-75
2022/01/14 00:49:37;;;;;;;10.68;4.25;;;1.40;85.70;;;;;;5010173;28;20046;-75
2022/01/14 00:52:42;;;;;;;8.40;3.60;;;1.50;84.90;;;;;;5010683;28;20041;-75
2022/01/14 00:55:54;;;;;;;9.45;4.18;;;1.60;83.30;;;;;;5010594;28;20038;-75
2022/01/14 00:59:15;;;;;;;7.45;3.78;;;1.80;81.70;;;;;;5010208;28;20042;-75
2022/01/14 01:02:19;;;;;;;7.72;4.10;;;2.00;80.00;;;;;;5010169;28;20037;-75
2022/01/14 01:05:25;;;;;;;8.75;4.07;;;2.10;79.80;;;;;;5010314;28;20362;-75
2022/01/14 01:08:30;;;;;;;10.70;5.65;;;2.00;82.90;;;;;;5013572;28;20485;-75
2022/01/14 01:11:37;;;;;;;13.05;5.22;;;1.80;83.10;;;;;;5013969;28;20041;-75
2022/01/14 01:14:56;;;;;;;7.18;4.68;;;1.70;85.30;;;;;;5013919;28;20045;-75
2022/01/14 01:18:00;;;;;;;7.45;4.57;;;1.70;85.20;;;;;;5014101;28;20490;-76
2022/01/14 01:21:05;;;;;;;9.88;4.68;;;1.60;85.40;;;;;;5013825;28;20042;-75
2022/01/14 01:24:11;;;;;;;10.27;4.57;;;1.40;85.40;;;;;;5014115;28;20049;-75
2022/01/14 01:27:17;;;;;;;9.52;3.97;;;1.30;86.80;;;;;;5013735;28;20053;-75
2022/01/14 01:33:37;;;;;;;8.82;4.32;;;1.10;88.60;;;;;;5013632;28;20038;-75
2022/01/14 01:36:44;;;;;;;7.13;3.88;;;1.10;87.60;;;;;;5013840;28;20037;-75
2022/01/14 01:39:48;;;;;;;5.55;2.92;;;1.10;87.80;;;;;;5013556;28;20033;-75
2022/01/14 01:42:57;;;;;;;8.20;3.42;;;1.20;87.80;;;;;;5013128;28;20045;-75
2022/01/14 01:46:01;;;;;;;8.55;3.70;;;1.30;86.70;;;;;;5013295;28;20034;-75
2022/01/14 01:49:07;;;;;;;5.75;3.63;;;1.40;86.20;;;;;;5013159;28;20038;-75
2022/01/14 01:52:11;;;;;;;5.60;2.83;;;1.40;87.60;;;;;;5013231;28;20042;-75
2022/01/14 01:55:17;;;;;;;10.30;4.82;;;1.40;86.40;;;;;;5013286;28;20042;-75
2022/01/14 01:58:20;;;;;;;26.85;10.93;;;1.50;87.00;;;;;;5012906;28;20041;-75
2022/01/14 02:01:25;;;;;;;7.20;3.53;;;1.50;85.80;;;;;;5013345;28;20393;-76
2022/01/14 02:04:30;;;;;;;5.15;2.97;;;1.60;85.20;;;;;;5013388;28;20418;-76
2022/01/14 02:07:34;;;;;;;6.22;3.35;;;1.60;85.20;;;;;;5012966;28;20030;-76
2022/01/14 02:10:39;;;;;;;5.18;3.33;;;1.60;85.90;;;;;;5012850;28;20034;-75
2022/01/14 02:13:44;;;;;;;7.55;3.65;;;1.60;87.10;;;;;;5012333;28;20442;-75
2022/01/14 02:23:31;;;;;;;15.32;7.32;;;1.60;85.40;;;;;;5012953;28;20034;-75
2022/01/14 02:26:53;;;;;;;7.47;5.07;;;1.60;87.70;;;;;;5012223;28;20512;-75
2022/01/14 02:29:57;;;;;;;7.07;4.05;;;1.60;85.20;;;;;;5012779;28;20034;-76
2022/01/14 02:33:01;;;;;;;6.65;4.00;;;1.60;84.60;;;;;;5012341;28;20046;-76
2022/01/14 02:36:06;;;;;;;9.85;5.10;;;1.60;85.30;;;;;;5012657;28;20026;-75
2022/01/14 02:39:11;;;;;;;9.27;4.30;;;1.70;86.40;;;;;;5012313;28;20054;-76
2022/01/14 02:42:16;;;;;;;9.18;4.25;;;1.60;86.40;;;;;;5012693;28;20042;-76
2022/01/14 02:45:22;;;;;;;6.82;3.40;;;1.70;84.80;;;;;;5012602;28;20042;-75
2022/01/14 02:48:28;;;;;;;6.45;3.40;;;1.60;85.60;;;;;;5011555;28;20046;-75
2022/01/14 02:51:33;;;;;;;5.38;3.22;;;1.30;88.80;;;;;;5011832;28;20038;-75
2022/01/14 02:55:02;;;;;;;7.97;4.03;;;1.10;90.10;;;;;;5012282;28;20042;-76
2022/01/14 02:58:07;;;;;;;9.32;4.50;;;1.00;91.30;;;;;;5011607;28;20038;-76
2022/01/14 03:01:22;;;;;;;7.30;4.50;;;0.90;91.20;;;;;;5012225;28;20374;-76
2022/01/14 03:04:27;;;;;;;10.07;4.50;;;0.80;91.70;;;;;;5011630;28;20046;-76
2022/01/14 03:07:31;;;;;;;8.48;4.13;;;0.70;92.00;;;;;;5012050;28;20110;-76
2022/01/14 03:10:35;;;;;;;10.93;3.88;;;0.60;93.00;;;;;;5011894;28;20037;-76
2022/01/14 03:13:39;;;;;;;7.63;3.78;;;0.50;93.80;;;;;;5011692;28;20060;-75
2022/01/14 03:16:47;;;;;;;7.68;4.32;;;0.40;93.90;;;;;;5011765;28;20029;-75
2022/01/14 03:19:52;;;;;;;9.80;4.45;;;0.40;93.60;;;;;;5011876;28;20038;-75
2022/01/14 03:23:05;;;;;;;6.25;3.30;;;0.40;93.60;;;;;;5011115;28;20042;-75
2022/01/14 03:26:08;;;;;;;;;;;0.50;93.80;;;;;;5012253;28;20042;-75
2022/01/14 03:29:15;;;;;;;3.58;2.20;;;0.60;93.40;;;;;;5010909;28;19916;-75
2022/01/14 03:32:18;;;;;;;4.60;1.73;;;0.70;92.80;;;;;;5011695;28;20042;-76
2022/01/14 03:35:23;;;;;;;4.60;1.90;;;0.90;92.60;;;;;;5011206;28;20038;-76
2022/01/14 03:38:27;;;;;;;3.65;1.60;;;1.00;92.30;;;;;;5011131;28;20038;-76
2022/01/14 03:41:31;;;;;;;3.97;2.30;;;1.00;91.80;;;;;;5011163;28;20041;-75
2022/01/14 03:44:35;;;;;;;3.65;1.63;;;1.20;90.80;;;;;;5011088;28;20038;-76
2022/01/14 03:47:39;;;;;;;2.63;1.55;;;1.30;90.80;;;;;;5011158;28;20045;-76
2022/01/14 03:50:43;;;;;;;3.92;1.80;;;1.40;91.00;;;;;;5011230;28;20393;-76
2022/01/14 03:53:50;;;;;;;3.75;1.70;;;1.40;90.80;;;;;;5011288;28;20037;-76
2022/01/14 03:56:54;;;;;;;6.93;3.80;;;1.40;90.50;;;;;;5011013;28;20042;-75
2022/01/14 03:59:58;;;;;;;7.57;3.58;;;1.40;90.30;;;;;;5010860;28;20045;-76
2022/01/14 04:03:05;;;;;;;5.80;2.25;;;1.30;90.40;;;;;;5010833;28;20353;-76
2022/01/14 04:06:13;;;;;;;4.28;2.50;;;1.30;91.20;;;;;;5011409;28;20030;-76
2022/01/14 04:09:17;;;;;;;4.43;1.77;;;1.30;90.50;;;;;;5011143;28;20046;-76
2022/01/14 04:12:34;;;;;;;3.33;1.90;;;1.30;90.60;;;;;;5010769;28;20062;-76
2022/01/14 04:15:41;;;;;;;4.18;2.13;;;1.20;90.80;;;;;;5011042;28;20370;-76
2022/01/14 04:18:45;;;;;;;8.57;3.00;;;1.10;90.70;;;;;;5010864;28;20046;-76
2022/01/14 04:21:50;;;;;;;7.00;3.05;;;1.10;90.90;;;;;;5011065;28;20053;-76
2022/01/14 04:24:53;;;;;;;4.57;2.70;;;1.10;90.90;;;;;;5011051;28;20049;-76
2022/01/14 04:27:57;;;;;;;5.82;2.30;;;1.20;90.80;;;;;;5010969;28;20042;-75
2022/01/14 04:31:03;;;;;;;4.30;2.10;;;1.20;90.50;;;;;;5010894;28;20030;-75
2022/01/14 04:34:08;;;;;;;4.63;2.08;;;1.30;90.20;;;;;;5010632;28;20049;-75
2022/01/14 04:37:12;;;;;;;4.18;2.58;;;1.40;90.00;;;;;;5010882;28;20034;-76
2022/01/14 04:40:17;;;;;;;8.20;3.70;;;1.30;90.50;;;;;;5010151;28;20042;-76
2022/01/14 04:43:21;;;;;;;6.65;3.47;;;1.10;91.20;;;;;;5013781;28;20370;-76
2022/01/14 04:49:31;;;;;;;15.73;4.18;;;0.70;92.90;;;;;;5014118;28;20041;-76
2022/01/14 04:52:35;;;;;;;10.68;4.00;;;0.50;93.00;;;;;;5014633;28;20048;-76
2022/01/14 04:55:39;;;;;;;6.05;3.30;;;0.40;93.60;;;;;;5014179;28;20397;-76
2022/01/14 04:58:43;;;;;;;12.30;4.63;;;0.30;94.40;;;;;;5014391;28;20038;-76
2022/01/14 05:01:47;;;;;;;11.88;4.00;;;0.00;95.70;;;;;;5014521;28;20052;-76
2022/01/14 05:04:54;;;;;;;9.50;3.90;;;-0.10;96.80;;;;;;5013052;28;20049;-76
2022/01/14 05:07:59;;;;;;;7.88;3.25;;;-0.30;98.00;;;;;;5024856;28;20045;-75
2022/01/14 05:11:21;;;;;;;7.93;3.83;;;-0.30;97.80;;;;;;5014158;28;20504;-76
2022/01/14 05:14:25;;;;;;;6.57;3.70;;;-0.30;97.10;;;;;;5014107;28;20041;-75
2022/01/14 05:17:29;;;;;;;9.75;4.78;;;-0.30;97.30;;;;;;5013851;28;20392;-76
2022/01/14 05:20:33;;;;;;;13.65;5.03;;;-0.20;97.70;;;;;;5013830;28;20053;-76
2022/01/14 05:23:37;;;;;;;10.63;5.40;;;0.00;97.10;;;;;;5013541;28;20048;-76
2022/01/14 05:26:42;;;;;;;11.52;5.03;;;0.00;96.90;;;;;;5013812;28;20050;-76
2022/01/14 05:29:46;;;;;;;11.88;5.32;;;0.00;96.70;;;;;;5013517;28;20064;-75
2022/01/14 05:32:52;;;;;;;9.65;5.00;;;0.20;96.40;;;;;;5013673;28;20080;-76
2022/01/14 05:35:57;;;;;;;10.40;4.65;;;0.30;97.00;;;;;;5013645;28;20042;-76
2022/01/14 05:39:01;;;;;;;9.00;4.68;;;0.30;96.10;;;;;;5013991;28;20065;-76
2022/01/14 05:42:06;;;;;;;11.15;4.60;;;0.20;96.30;;;;;;5013570;28;20045;-76
2022/01/14 05:45:11;;;;;;;11.90;5.10;;;0.10;97.00;;;;;;5013254;28;20517;-76
2022/01/14 05:48:15;;;;;;;9.52;4.80;;;0.00;98.00;;;;;;5013162;28;20069;-76
2022/01/14 05:51:19;;;;;;;12.25;5.07;;;-0.20;98.80;;;;;;5013830;28;20030;-76
2022/01/14 05:54:24;;;;;;;10.15;5.07;;;-0.20;99.80;;;;;;5012916;28;20049;-75
2022/01/14 05:57:28;;;;;;;16.50;6.50;;;-0.20;99.70;;;;;;5013152;28;20405;-75
2022/01/14 06:00:32;;;;;;;10.00;5.28;;;-0.10;99.40;;;;;;5013389;28;20511;-75
2022/01/14 06:03:36;;;;;;;14.30;5.88;;;0.00;99.80;;;;;;5012971;28;20045;-76
2022/01/14 06:06:40;;;;;;;10.68;4.70;;;0.00;99.60;;;;;;5013156;28;20053;-75
2022/01/14 06:09:44;;;;;;;13.93;4.60;;;0.00;99.90;;;;;;5012910;28;20044;-75
2022/01/14 06:12:48;;;;;;;5.70;2.97;;;-0.10;99.90;;;;;;5012508;28;20401;-75
2022/01/14 06:15:52;;;;;;;8.73;3.97;;;0.10;98.80;;;;;;5012583;28;20531;-75
2022/01/14 06:18:56;;;;;;;10.13;4.22;;;0.20;98.70;;;;;;5013116;28;20041;-75
2022/01/14 06:22:01;;;;;;;8.80;4.10;;;0.10;99.80;;;;;;5012715;28;20151;-75
2022/01/14 06:25:06;;;;;;;11.52;4.10;;;0.10;99.90;;;;;;5023393;28;20321;-74
2022/01/14 06:28:11;;;;;;;8.15;3.45;;;0.10;99.90;;;;;;5012351;28;20049;-75
2022/01/14 06:31:15;;;;;;;5.85;3.75;;;0.20;99.50;;;;;;5012581;28;20042;-75
2022/01/14 06:34:20;;;;;;;11.68;5.38;;;0.30;99.90;;;;;;5012676;28;20046;-74
2022/01/14 06:37:24;;;;;;;11.00;4.55;;;0.20;99.10;;;;;;5012369;28;20053;-75
2022/01/14 06:40:29;;;;;;;9.63;5.03;;;0.10;99.90;;;;;;5018258;28;20048;-74
2022/01/14 06:43:33;;;;;;;8.43;5.47;;;-0.20;99.90;;;;;;5032065;28;20386;-74
2022/01/14 06:46:37;;;;;;;11.38;5.20;;;-0.40;99.90;;;;;;5032067;28;20040;-74
2022/01/14 06:49:42;;;;;;;10.13;4.60;;;-0.40;99.90;;;;;;5027033;28;20041;-75
2022/01/14 06:52:45;;;;;;;12.18;6.50;;;-0.50;99.90;;;;;;5012446;28;20057;-74
2022/01/14 06:55:50;;;;;;;7.90;4.60;;;-0.50;99.90;;;;;;5011983;28;20053;-74
2022/01/14 06:58:54;;;;;;;9.25;4.63;;;-0.50;99.90;;;;;;5012265;28;20032;-74
2022/01/14 07:01:59;;;;;;;10.73;5.75;;;-0.50;99.90;;;;;;5014944;28;20393;-74
2022/01/14 07:05:06;;;;;;;11.63;5.75;;;-0.40;99.90;;;;;;5015325;28;20061;-74
2022/01/14 07:08:11;;;;;;;13.15;5.10;;;-0.30;99.90;;;;;;5011543;28;20064;-74
2022/01/14 07:11:16;;;;;;;13.40;5.75;;;-0.20;99.90;;;;;;5023111;28;20245;-74
2022/01/14 07:14:20;;;;;;;9.80;5.45;;;-0.10;99.90;;;;;;5015087;28;20053;-74
2022/01/14 07:17:25;;;;;;;12.00;5.53;;;0.10;99.90;;;;;;5024745;28;20049;-75
2022/01/14 07:20:29;;;;;;;12.43;5.88;;;2.40;99.90;;;;;;5013008;28;20045;-75
2022/01/14 07:23:33;;;;;;;8.35;4.65;;;5.50;97.00;;;;;;5029451;28;20048;-75
2022/01/14 07:26:37;;;;;;;43.53;22.95;;;8.30;90.00;;;;;;5014288;28;20030;-75
2022/01/14 07:29:42;;;;;;;25.25;14.23;;;10.00;80.20;;;;;;5022369;28;20496;-75
2022/01/14 07:32:47;;;;;;;28.23;15.93;;;11.10;74.90;;;;;;5024587;28;20129;-75
2022/01/14 07:35:51;;;;;;;26.08;16.13;;;12.30;74.20;;;;;;5026523;28;20049;-75
2022/01/14 07:38:55;;;;;;;21.73;11.88;;;14.00;69.30;;;;;;5026333;28;20045;-76
2022/01/14 07:42:00;;;;;;;10.63;6.13;;;13.50;67.30;;;;;;5025915;28;20048;-75
2022/01/14 07:45:05;;;;;;;11.18;7.05;;;12.30;65.20;;;;;;5027881;28;20384;-76
2022/01/14 07:48:09;;;;;;;7.75;4.85;;;13.70;66.10;;;;;;5025595;28;20048;-77
2022/01/14 07:51:14;;;;;;;9.15;5.25;;;15.70;62.50;;;;;;5029371;28;20048;-77
2022/01/14 07:54:18;;;;;;;7.32;5.22;;;16.20;60.30;;;;;;5027375;28;20049;-78
2022/01/14 07:57:22;;;;;;;11.32;5.90;;;17.10;57.60;;;;;;5020973;28;20037;-77
2022/01/14 08:00:28;;;;;;;6.75;4.90;;;16.00;60.40;;;;;;5020784;28;20629;-77
2022/01/14 08:03:34;;;;;;;7.85;4.82;;;17.70;58.40;;;;;;5016485;28;20045;-77
2022/01/14 08:06:45;;;;;;;7.55;5.00;;;19.20;55.40;;;;;;5010604;28;20065;-75
2022/01/14 08:09:49;;;;;;;5.97;4.40;;;20.10;55.50;;;;;;5013617;28;20484;-75
2022/01/14 08:12:53;;;;;;;7.32;4.13;;;20.60;54.10;;;;;;5015600;28;20056;-77
2022/01/14 08:15:57;;;;;;;8.00;5.43;;;21.30;51.30;;;;;;5019678;28;20041;-77
2022/01/14 08:19:00;;;;;;;10.30;5.90;;;21.40;53.10;;;;;;5020152;28;20500;-77
2022/01/14 08:22:06;;;;;;;5.32;3.97;;;21.70;50.00;;;;;;5019454;28;20056;-77
2022/01/14 08:25:11;;;;;;;7.22;3.80;;;21.20;49.80;;;;;;5022442;28;20048;-77
2022/01/14 08:28:15;;;;;;;5.32;3.63;;;20.80;50.50;;;;;;5022981;28;20056;-77
2022/01/14 08:31:22;;;;;;;9.27;3.85;;;20.80;50.50;;;;;;5016859;28;20045;-77
2022/01/14 08:34:27;;;;;;;6.32;4.00;;;22.20;49.70;;;;;;5010828;28;20057;-76
2022/01/14 08:37:31;;;;;;;8.25;5.57;;;21.00;49.10;;;;;;5023779;28;20044;-74
2022/01/14 08:40:35;;;;;;;6.20;4.90;;;17.80;50.60;;;;;;5019898;28;20052;-77
2022/01/14 08:43:39;;;;;;;6.72;4.47;;;16.50;52.90;;;;;;5010942;28;20053;-76
2022/01/14 08:46:43;;;;;;;8.77;3.92;;;17.00;54.90;;;;;;5017759;28;20061;-74
2022/01/14 08:49:47;;;;;;;5.25;3.30;;;19.70;52.10;;;;;;5024686;28;20049;-76
2022/01/14 08:52:51;;;;;;;7.90;5.05;;;20.80;50.80;;;;;;5022797;28;20040;-77
2022/01/14 08:55:55;;;;;;;4.82;3.70;;;23.00;49.10;;;;;;5019290;28;20049;-76
2022/01/14 08:59:00;;;;;;;32.50;22.40;;;22.90;48.10;;;;;;5019478;28;20045;-76
2022/01/14 09:02:04;;;;;;;51.53;36.17;;;24.50;46.00;;;;;;5021178;28;20049;-74
2022/01/14 09:05:10;;;;;;;14.82;10.93;;;25.60;46.30;;;;;;5020304;28;20040;-76
2022/01/14 09:08:14;;;;;;;15.30;12.15;;;26.80;46.60;;;;;;5016025;28;20044;-74
2022/01/14 09:11:18;;;;;;;18.10;13.75;;;27.50;45.70;;;;;;5018972;28;20056;-76
2022/01/14 09:14:25;;;;;;;14.63;11.93;;;27.90;45.60;;;;;;5016084;28;20041;-75
2022/01/14 09:17:28;;;;;;;25.83;18.20;;;27.70;44.50;;;;;;5022804;28;20057;-76
2022/01/14 09:20:33;;;;;;;34.67;26.45;;;27.90;43.00;;;;;;5016881;28;20064;-76
2022/01/14 09:23:37;;;;;;;64.07;51.65;;;28.80;43.50;;;;;;5025781;28;20400;-76
2022/01/14 09:26:41;;;;;;;23.67;19.35;;;28.20;42.20;;;;;;5021013;28;20044;-76
2022/01/14 09:29:46;;;;;;;35.17;28.23;;;26.00;43.40;;;;;;5019114;28;20056;-76
2022/01/14 09:32:50;;;;;;;10.32;6.82;;;24.20;43.90;;;;;;5028790;28;20615;-76
2022/01/14 09:35:54;;;;;;;7.55;5.75;;;21.80;47.10;;;;;;5025762;28;20033;-76
2022/01/14 09:38:58;;;;;;;15.00;8.38;;;19.70;49.50;;;;;;5023516;28;20479;-76
2022/01/14 09:42:04;;;;;;;9.60;7.80;;;23.60;47.70;;;;;;5023364;28;20049;-76
2022/01/14 09:45:10;;;;;;;8.38;6.47;;;26.20;45.80;;;;;;5032563;28;20052;-76
2022/01/14 09:48:15;;;;;;;6.80;5.22;;;27.60;44.10;;;;;;5015574;28;20045;-76
2022/01/14 09:51:19;;;;;;;6.05;3.58;;;28.60;44.20;;;;;;5021931;28;20049;-76
2022/01/14 09:54:25;;;;;;;5.68;3.90;;;30.10;43.40;;;;;;5018895;28;20512;-76
2022/01/14 09:57:29;;;;;;;5.43;4.60;;;31.30;41.50;;;;;;5024370;28;20032;-76
2022/01/14 10:00:34;;;;;;;6.50;4.95;;;28.00;43.00;;;;;;5030269;28;20036;-75
2022/01/14 10:03:55;;;;;;;5.30;4.50;;;25.10;43.80;;;;;;5025744;28;20392;-75
2022/01/14 10:07:01;;;;;;;5.63;4.23;;;23.20;46.10;;;;;;5023459;28;20491;-75
2022/01/14 10:10:24;;;;;;;6.53;4.88;;;23.20;45.70;;;;;;5020051;28;20045;-75
2022/01/14 10:13:34;;;;;;;7.03;4.50;;;20.60;47.80;;;;;;5025899;28;20036;-75
2022/01/14 10:16:41;;;;;;;7.80;4.40;;;23.50;47.00;;;;;;5021616;28;20041;-75
2022/01/14 10:19:46;;;;;;;7.30;4.93;;;23.70;45.10;;;;;;5022323;28;20579;-75
2022/01/14 10:22:50;;;;;;;6.18;4.72;;;23.90;46.50;;;;;;5022328;28;20413;-75
2022/01/14 10:25:56;;;;;;;7.57;5.68;;;25.80;45.00;;;;;;5017498;28;20045;-76
2022/01/14 10:29:05;;;;;;;7.47;5.78;;;27.60;44.90;;;;;;5018534;28;20049;-76
2022/01/14 10:32:12;;;;;;;9.10;7.18;;;26.30;43.40;;;;;;5012665;28;20045;-75
2022/01/14 10:35:19;;;;;;;11.32;7.50;;;24.30;45.10;;;;;;5028092;28;20045;-75
2022/01/14 10:38:36;;;;;;;10.02;7.68;;;21.50;47.80;;;;;;5017715;28;20505;-75
2022/01/14 10:41:40;;;;;;;12.68;8.00;;;23.50;48.10;;;;;;5014307;28;20056;-75
2022/01/14 10:44:44;;;;;;;12.23;8.48;;;21.80;48.40;;;;;;5026337;28;20049;-75
2022/01/14 10:47:52;;;;;;;10.30;7.38;;;22.10;49.30;;;;;;5026456;28;20056;-75
2022/01/14 10:50:59;;;;;;;10.48;7.38;;;22.80;48.80;;;;;;5022323;28;20523;-76
2022/01/14 10:54:04;;;;;;;8.73;6.25;;;24.20;46.50;;;;;;5013332;28;20045;-76
2022/01/14 10:57:13;;;;;;;12.90;7.45;;;25.30;45.90;;;;;;5021530;28;20032;-75
2022/01/14 11:00:22;;;;;;;10.45;7.35;;;25.40;43.80;;;;;;5025759;28;20033;-75
2022/01/14 11:03:38;;;;;;;10.43;7.05;;;26.00;46.00;;;;;;5013532;28;20061;-75
2022/01/14 11:06:43;;;;;;;9.98;7.93;;;26.20;45.20;;;;;;5017045;28;20397;-76
2022/01/14 11:09:47;;;;;;;9.80;7.30;;;26.30;45.10;;;;;;5031079;28;20056;-76
2022/01/14 11:12:54;;;;;;;12.25;7.25;;;27.70;46.30;;;;;;5020954;28;20044;-76
2022/01/14 11:15:59;;;;;;;8.68;6.80;;;27.30;44.50;;;;;;5020336;28;20353;-76
2022/01/14 11:19:07;;;;;;;8.43;6.20;;;27.60;45.70;;;;;;5021405;28;20040;-76
2022/01/14 11:25:40;;;;;;;9.70;6.68;;;31.40;44.40;;;;;;5040334;28;20040;-76
2022/01/14 11:28:44;;;;;;;;;;;33.00;43.30;;;;;;5014554;28;20045;-76
2022/01/14 11:32:02;;;;;;;7.10;5.18;;;33.70;43.30;;;;;;5022221;28;20281;-76
2022/01/14 11:35:20;;;;;;;5.75;5.07;;;33.00;41.30;;;;;;5018646;28;20488;-76
2022/01/14 11:38:35;;;;;;;6.53;4.90;;;33.50;41.40;;;;;;5018068;28;20041;-76
2022/01/14 11:41:54;;;;;;;5.60;4.95;;;33.30;40.70;;;;;;5018538;28;20044;-76
2022/01/14 11:45:01;;;;;;;5.90;4.70;;;34.20;41.00;;;;;;5021831;28;20044;-76
2022/01/14 11:48:05;;;;;;;8.23;5.30;;;33.90;41.10;;;;;;5020786;28;20057;-77
2022/01/14 11:51:14;;;;;;;6.90;5.15;;;31.20;40.10;;;;;;5022445;28;20160;-76
2022/01/14 11:59:18;;;;;;;8.23;5.50;;;26.50;42.20;;;;;;5023992;28;20036;-76
2022/01/14 12:02:28;;;;;;;7.03;5.20;;;25.30;45.10;;;;;;5025905;28;20033;-76
2022/01/14 12:05:34;;;;;;;8.40;4.53;;;25.50;43.20;;;;;;5016787;28;20064;-76
2022/01/14 12:08:42;;;;;;;5.50;4.32;;;25.30;42.20;;;;;;5016923;28;20520;-76
2022/01/14 12:12:22;;;;;;;6.20;4.18;;;26.60;42.40;;;;;;5024387;28;20085;-76
2022/01/14 12:15:47;;;;;;;6.13;4.50;;;27.90;42.10;;;;;;5010260;28;20037;-76
2022/01/14 12:18:57;;;;;;;5.45;4.25;;;30.00;42.40;;;;;;5028355;28;20420;-76
2022/01/14 12:22:01;;;;;;;5.55;4.10;;;30.80;42.30;;;;;;5021874;28;20036;-76
2022/01/14 12:25:06;;;;;;;6.93;3.47;;;33.10;42.50;;;;;;5021841;28;20044;-76
2022/01/14 12:28:21;;;;;;;7.90;4.20;;;34.30;40.20;;;;;;5021493;28;20369;-76
2022/01/14 12:31:26;;;;;;;5.72;3.88;;;34.20;40.50;;;;;;5027263;28;20052;-76
2022/01/14 12:34:35;;;;;;;5.13;3.97;;;33.70;39.50;;;;;;5023976;28;20053;-76
2022/01/14 12:37:43;;;;;;;5.88;3.88;;;32.80;39.70;;;;;;5019486;28;20393;-76
2022/01/14 12:40:47;;;;;;;6.43;3.80;;;33.50;40.40;;;;;;5021201;28;20049;-76
2022/01/14 12:43:56;;;;;;;4.30;3.50;;;34.30;40.40;;;;;;5017868;28;20052;-76
2022/01/14 12:47:05;;;;;;;4.72;3.63;;;34.30;40.00;;;;;;5020111;28;20061;-76
2022/01/14 12:50:11;;;;;;;4.85;3.35;;;34.00;40.60;;;;;;5021971;28;20045;-76
2022/01/14 12:53:17;;;;;;;5.13;3.40;;;34.00;39.60;;;;;;5016932;28;20064;-76
2022/01/14 12:56:23;;;;;;;5.13;3.40;;;34.30;39.40;;;;;;5016755;28;20530;-76
2022/01/14 12:59:27;;;;;;;5.13;3.15;;;34.00;39.40;;;;;;5023374;28;20041;-76
2022/01/14 13:02:34;;;;;;;4.97;3.38;;;34.50;39.20;;;;;;5014008;28;20044;-76
2022/01/14 13:05:38;;;;;;;5.50;3.20;;;34.90;39.70;;;;;;5020669;28;20496;-76
2022/01/14 13:08:42;;;;;;;5.05;3.20;;;34.40;39.40;;;;;;5027434;28;20396;-76
2022/01/14 13:12:00;;;;;;;5.03;3.35;;;34.10;40.20;;;;;;5023220;28;20048;-76
2022/01/14 13:15:06;;;;;;;4.22;3.38;;;34.70;39.50;;;;;;5033684;28;20052;-76
2022/01/14 13:18:20;;;;;;;5.82;3.67;;;34.80;39.50;;;;;;5023138;28;20041;-76
2022/01/14 13:21:25;;;;;;;3.67;3.17;;;34.70;39.90;;;;;;5022226;28;20053;-76
2022/01/14 13:24:31;;;;;;;5.60;3.58;;;34.50;40.00;;;;;;5019928;28;20041;-76
2022/01/14 13:27:38;;;;;;;4.15;3.50;;;34.70;39.50;;;;;;5027825;28;20762;-76
2022/01/14 13:30:44;;;;;;;7.07;3.97;;;34.10;40.20;;;;;;5023995;28;20064;-76
2022/01/14 13:33:49;;;;;;;4.55;3.53;;;33.40;40.40;;;;;;5016436;28;20389;-76
2022/01/14 13:36:53;;;;;;;6.95;3.75;;;33.10;40.50;;;;;;5016258;28;20049;-77
2022/01/14 13:40:09;;;;;;;4.70;3.55;;;32.90;41.30;;;;;;5020622;28;20053;-76
2022/01/14 13:43:26;;;;;;;6.68;4.30;;;32.50;41.00;;;;;;5014891;28;20045;-76
2022/01/14 13:46:33;;;;;;;4.93;3.60;;;32.40;41.30;;;;;;5020251;28;20052;-76
2022/01/14 13:49:37;;;;;;;4.85;3.45;;;32.50;41.60;;;;;;5023305;28;20060;-76
2022/01/14 13:52:45;;;;;;;5.25;3.40;;;32.20;41.60;;;;;;5022836;28;20496;-76
2022/01/14 13:55:54;;;;;;;7.50;3.40;;;31.50;42.00;;;;;;5013710;28;20382;-76
2022/01/14 13:59:00;;;;;;;3.83;2.88;;;31.20;42.30;;;;;;5017805;28;20064;-76
2022/01/14 14:02:06;;;;;;;3.40;2.63;;;31.00;42.00;;;;;;5018686;28;20060;-76
2022/01/14 14:05:31;;;;;;;6.05;3.08;;;30.30;42.20;;;;;;5021229;28;20037;-76
2022/01/14 14:08:44;;;;;;;5.45;3.63;;;29.40;42.50;;;;;;5019691;28;20040;-76
2022/01/14 14:12:10;;;;;;;7.85;4.82;;;28.80;43.50;;;;;;5027485;28;20048;-76
2022/01/14 14:18:40;;;;;;;9.05;6.20;;;28.20;44.60;;;;;;5016562;28;20053;-76
2022/01/14 14:21:45;;;;;;;12.40;6.05;;;28.20;44.10;;;;;;5014417;28;20045;-76
2022/01/14 14:25:07;;;;;;;11.20;6.45;;;27.80;44.20;;;;;;5025128;28;20041;-76
2022/01/14 14:28:11;;;;;;;10.73;6.63;;;27.00;44.60;;;;;;5018377;28;20045;-76
2022/01/14 14:31:29;;;;;;;10.13;6.18;;;26.80;45.10;;;;;;5026042;28;20045;-76
2022/01/14 14:34:33;;;;;;;7.35;5.53;;;27.00;44.90;;;;;;5025029;28;20049;-76
2022/01/14 14:37:38;;;;;;;10.90;7.05;;;27.10;45.50;;;;;;5023761;28;20044;-76
2022/01/14 14:40:43;;;;;;;10.25;6.70;;;26.90;45.60;;;;;;5017977;28;20045;-76
2022/01/14 14:43:48;;;;;;;12.25;9.88;;;26.70;45.40;;;;;;5032284;28;20495;-75
2022/01/14 14:46:52;;;;;;;7.22;5.07;;;26.20;45.20;;;;;;5031171;28;20048;-77
2022/01/14 14:49:56;;;;;;;7.85;4.82;;;25.80;45.50;;;;;;5026427;28;20057;-76
2022/01/14 14:53:01;;;;;;;9.43;5.20;;;25.10;45.90;;;;;;5019573;28;20049;-75
2022/01/14 14:56:09;;;;;;;7.95;4.60;;;24.60;46.30;;;;;;5026184;28;20036;-76
2022/01/14 14:59:14;;;;;;;8.93;4.38;;;24.50;46.20;;;;;;5023441;28;20037;-76
2022/01/14 15:02:18;;;;;;;7.30;4.25;;;24.20;46.60;;;;;;5020450;28;20056;-76
2022/01/14 15:05:23;;;;;;;7.72;5.10;;;23.80;46.80;;;;;;5027201;28;20037;-76
2022/01/14 15:08:27;;;;;;;13.38;4.53;;;23.40;47.40;;;;;;5020229;28;20101;-76
2022/01/14 15:11:32;;;;;;;7.50;4.53;;;22.90;47.90;;;;;;5030996;28;20052;-78
2022/01/14 15:14:36;;;;;;;7.30;4.38;;;22.60;48.20;;;;;;5022157;28;20052;-76
2022/01/14 15:20:59;;;;;;;7.28;3.85;;;21.50;48.90;;;;;;5012293;28;20041;-75
2022/01/14 15:24:04;;;;;;;7.60;5.43;;;21.20;50.10;;;;;;5015696;28;20052;-76
2022/01/14 15:27:09;;;;;;;7.75;4.90;;;20.90;50.10;;;;;;5026807;28;20044;-76
2022/01/14 15:30:15;;;;;;;8.55;3.80;;;20.60;51.30;;;;;;5020770;28;20480;-76
2022/01/14 15:33:25;;;;;;;8.85;5.25;;;20.30;51.30;;;;;;5013322;28;20104;-75
2022/01/14 15:36:30;;;;;;;11.43;5.10;;;19.50;52.00;;;;;;5029359;28;20401;-75
2022/01/14 15:39:33;;;;;;;6.65;4.03;;;19.10;52.30;;;;;;5028957;28;20084;-75
2022/01/14 15:42:37;;;;;;;8.13;4.13;;;18.40;52.70;;;;;;5028474;28;20056;-75
2022/01/14 15:45:42;;;;;;;10.15;4.88;;;17.80;53.40;;;;;;5020038;28;20048;-75
2022/01/14 15:48:47;;;;;;;7.32;5.20;;;17.50;54.60;;;;;;5017484;28;20052;-75
2022/01/14 15:51:51;;;;;;;9.48;5.70;;;16.90;54.80;;;;;;5023974;28;20052;-75
2022/01/14 15:54:55;;;;;;;12.40;5.50;;;16.10;55.60;;;;;;5013600;28;20045;-75
2022/01/14 15:58:00;;;;;;;12.48;5.13;;;15.00;57.00;;;;;;5020688;28;20037;-77
2022/01/14 16:01:03;;;;;;;11.43;5.22;;;14.10;58.40;;;;;;5017377;28;20555;-77
2022/01/14 16:04:07;;;;;;;11.23;5.70;;;13.30;59.40;;;;;;5015159;28;20048;-77
2022/01/14 16:07:18;;;;;;;13.20;5.05;;;12.70;61.00;;;;;;5014473;28;20029;-75
2022/01/14 16:10:23;;;;;;;11.68;5.05;;;12.20;62.50;;;;;;5015340;28;20408;-75
2022/01/14 16:13:29;;;;;;;13.75;5.30;;;11.90;63.70;;;;;;5019619;28;20510;-76
2022/01/14 16:16:33;;;;;;;10.05;5.45;;;11.70;64.30;;;;;;5031159;28;20729;-77
2022/01/14 16:19:37;;;;;;;11.35;5.50;;;11.40;64.70;;;;;;5030455;28;20053;-74
2022/01/14 16:22:42;;;;;;;10.25;6.18;;;11.30;65.20;;;;;;5029323;28;20495;-75
2022/01/14 16:25:49;;;;;;;65.47;36.78;;;11.00;65.20;;;;;;5029971;28;20064;-75
2022/01/14 16:28:52;;;;;;;90.63;45.28;;;10.80;64.70;;;;;;5029539;28;20044;-75
2022/01/14 16:31:56;;;;;;;40.70;19.50;;;10.60;64.80;;;;;;5029740;28;20060;-76
2022/01/14 16:35:05;;;;;;;15.15;7.53;;;10.50;64.60;;;;;;5029848;28;20428;-76
2022/01/14 16:38:09;;;;;;;14.00;8.18;;;10.40;64.60;;;;;;5034799;28;20036;-76
2022/01/14 16:41:13;;;;;;;15.60;8.45;;;10.30;65.00;;;;;;5036709;28;20486;-76
2022/01/14 16:44:17;;;;;;;8.05;4.97;;;10.20;65.10;;;;;;5036231;28;20052;-76
2022/01/14 16:47:22;;;;;;;10.27;5.07;;;10.20;65.90;;;;;;5036641;28;20056;-76
2022/01/14 16:50:27;;;;;;;9.52;5.47;;;10.10;66.20;;;;;;5036040;28;20056;-76